sensor_id;sensor_type;location;lat;lon;timestamp;P1;durP1;ratioP1;P2;durP2;ratioP2
61085;SDS011;46967;48.876;2.136;2023-02-21T00:00:50;18.88;;;12.50;;
61085;SDS011;46967;48.876;2.136;2023-02-21T00:03:34;21.15;;;12.60;;
61085;SDS011;46967;48.876;2.136;2023-02-21T00:06:18;16.58;;;11.30;;
61085;SDS011;46967;48.876;2.136;2023-02-21T00:09:02;19.92;;;11.45;;
61085;SDS011;46967;48.876;2.136;2023-02-21T00:11:46;20.13;;;11.68;;
61085;SDS011;46967;48.876;2.136;2023-02-21T00:14:30;19.17;;;12.15;;
61085;SDS011;46967;48.876;2.136;2023-02-21T00:17:14;20.85;;;12.05;;
61085;SDS011;46967;48.876;2.136;2023-02-21T00:19:58;18.10;;;11.82;;
61085;SDS011;46967;48.876;2.136;2023-02-21T00:22:43;19.52;;;11.55;;
61085;SDS011;46967;48.876;2.136;2023-02-21T00:25:28;17.35;;;11.45;;
61085;SDS011;46967;48.876;2.136;2023-02-21T00:28:11;17.98;;;10.65;;
61085;SDS011;46967;48.876;2.136;2023-02-21T00:30:55;17.10;;;11.02;;
61085;SDS011;46967;48.876;2.136;2023-02-21T00:33:39;16.50;;;10.23;;
61085;SDS011;46967;48.876;2.136;2023-02-21T00:36:23;19.30;;;10.82;;
61085;SDS011;46967;48.876;2.136;2023-02-21T00:39:07;18.35;;;12.00;;
61085;SDS011;46967;48.876;2.136;2023-02-21T00:41:51;19.98;;;11.95;;
61085;SDS011;46967;48.876;2.136;2023-02-21T00:44:35;20.42;;;11.60;;
61085;SDS011;46967;48.876;2.136;2023-02-21T00:47:19;17.15;;;11.40;;
61085;SDS011;46967;48.876;2.136;2023-02-21T00:50:03;18.38;;;11.38;;
61085;SDS011;46967;48.876;2.136;2023-02-21T00:52:47;16.42;;;10.52;;
61085;SDS011;46967;48.876;2.136;2023-02-21T00:55:31;16.50;;;10.75;;
61085;SDS011;46967;48.876;2.136;2023-02-21T00:58:15;18.05;;;9.70;;
61085;SDS011;46967;48.876;2.136;2023-02-21T01:00:59;16.45;;;11.00;;
61085;SDS011;46967;48.876;2.136;2023-02-21T01:03:43;14.77;;;9.98;;
61085;SDS011;46967;48.876;2.136;2023-02-21T01:06:27;17.05;;;10.57;;
61085;SDS011;46967;48.876;2.136;2023-02-21T01:09:11;15.63;;;10.20;;
61085;SDS011;46967;48.876;2.136;2023-02-21T01:11:55;14.80;;;9.93;;
61085;SDS011;46967;48.876;2.136;2023-02-21T01:14:39;17.30;;;10.48;;
61085;SDS011;46967;48.876;2.136;2023-02-21T01:17:23;19.40;;;9.55;;
61085;SDS011;46967;48.876;2.136;2023-02-21T01:20:07;15.30;;;10.10;;
61085;SDS011;46967;48.876;2.136;2023-02-21T01:22:51;14.68;;;9.73;;
61085;SDS011;46967;48.876;2.136;2023-02-21T01:25:35;15.32;;;9.75;;
61085;SDS011;46967;48.876;2.136;2023-02-21T01:28:19;14.45;;;9.15;;
61085;SDS011;46967;48.876;2.136;2023-02-21T01:31:03;14.77;;;9.43;;
61085;SDS011;46967;48.876;2.136;2023-02-21T01:33:47;14.95;;;9.88;;
61085;SDS011;46967;48.876;2.136;2023-02-21T01:36:31;16.20;;;9.85;;
61085;SDS011;46967;48.876;2.136;2023-02-21T01:39:15;13.07;;;8.63;;
61085;SDS011;46967;48.876;2.136;2023-02-21T01:41:59;13.77;;;9.73;;
61085;SDS011;46967;48.876;2.136;2023-02-21T01:44:43;12.13;;;8.55;;
61085;SDS011;46967;48.876;2.136;2023-02-21T01:47:28;16.73;;;8.68;;
61085;SDS011;46967;48.876;2.136;2023-02-21T01:52:57;14.02;;;8.65;;
61085;SDS011;46967;48.876;2.136;2023-02-21T01:55:42;11.40;;;8.40;;
61085;SDS011;46967;48.876;2.136;2023-02-21T01:58:27;12.13;;;7.88;;
61085;SDS011;46967;48.876;2.136;2023-02-21T02:01:15;12.75;;;8.82;;
61085;SDS011;46967;48.876;2.136;2023-02-21T02:04:05;13.02;;;8.55;;
61085;SDS011;46967;48.876;2.136;2023-02-21T02:06:49;12.45;;;8.43;;
61085;SDS011;46967;48.876;2.136;2023-02-21T02:09:33;15.30;;;9.35;;
61085;SDS011;46967;48.876;2.136;2023-02-21T02:15:23;12.63;;;8.63;;
61085;SDS011;46967;48.876;2.136;2023-02-21T02:35:17;13.27;;;7.95;;
61085;SDS011;46967;48.876;2.136;2023-02-21T02:46:27;12.75;;;8.15;;
61085;SDS011;46967;48.876;2.136;2023-02-21T02:48:59;11.88;;;7.72;;
61085;SDS011;46967;48.876;2.136;2023-02-21T02:51:25;11.57;;;8.02;;
61085;SDS011;46967;48.876;2.136;2023-02-21T02:53:51;10.90;;;7.63;;
61085;SDS011;46967;48.876;2.136;2023-02-21T02:56:17;12.80;;;7.68;;
61085;SDS011;46967;48.876;2.136;2023-02-21T02:58:47;11.70;;;7.57;;
61085;SDS011;46967;48.876;2.136;2023-02-21T03:01:18;12.48;;;8.40;;
61085;SDS011;46967;48.876;2.136;2023-02-21T03:15:16;11.20;;;7.32;;
61085;SDS011;46967;48.876;2.136;2023-02-21T03:17:50;11.05;;;7.63;;
61085;SDS011;46967;48.876;2.136;2023-02-21T03:20:20;11.40;;;7.70;;
61085;SDS011;46967;48.876;2.136;2023-02-21T03:22:46;12.95;;;8.10;;
61085;SDS011;46967;48.876;2.136;2023-02-21T03:25:13;12.02;;;7.70;;
61085;SDS011;46967;48.876;2.136;2023-02-21T03:27:40;10.63;;;6.97;;
61085;SDS011;46967;48.876;2.136;2023-02-21T03:30:07;12.88;;;7.65;;
61085;SDS011;46967;48.876;2.136;2023-02-21T03:32:37;10.35;;;6.97;;
61085;SDS011;46967;48.876;2.136;2023-02-21T03:35:06;10.73;;;6.95;;
61085;SDS011;46967;48.876;2.136;2023-02-21T03:37:36;10.52;;;7.32;;
61085;SDS011;46967;48.876;2.136;2023-02-21T03:40:07;11.15;;;6.85;;
61085;SDS011;46967;48.876;2.136;2023-02-21T03:42:37;10.43;;;7.20;;
61085;SDS011;46967;48.876;2.136;2023-02-21T03:45:02;13.20;;;7.70;;
61085;SDS011;46967;48.876;2.136;2023-02-21T03:47:27;11.80;;;7.25;;
61085;SDS011;46967;48.876;2.136;2023-02-21T03:49:53;10.02;;;7.25;;
61085;SDS011;46967;48.876;2.136;2023-02-21T03:52:18;10.10;;;6.97;;
61085;SDS011;46967;48.876;2.136;2023-02-21T03:54:43;10.15;;;7.03;;
61085;SDS011;46967;48.876;2.136;2023-02-21T03:57:09;9.40;;;7.13;;
61085;SDS011;46967;48.876;2.136;2023-02-21T03:59:34;10.88;;;7.35;;
61085;SDS011;46967;48.876;2.136;2023-02-21T04:01:59;9.77;;;7.00;;
61085;SDS011;46967;48.876;2.136;2023-02-21T04:04:25;9.50;;;6.55;;
61085;SDS011;46967;48.876;2.136;2023-02-21T04:06:50;9.70;;;7.13;;
61085;SDS011;46967;48.876;2.136;2023-02-21T04:09:15;11.23;;;7.60;;
61085;SDS011;46967;48.876;2.136;2023-02-21T04:11:44;9.45;;;7.30;;
61085;SDS011;46967;48.876;2.136;2023-02-21T04:14:11;10.73;;;6.82;;
61085;SDS011;46967;48.876;2.136;2023-02-21T04:16:37;11.95;;;7.55;;
61085;SDS011;46967;48.876;2.136;2023-02-21T04:19:02;10.93;;;6.93;;
61085;SDS011;46967;48.876;2.136;2023-02-21T04:21:28;9.77;;;6.65;;
61085;SDS011;46967;48.876;2.136;2023-02-21T04:23:53;10.38;;;6.70;;
61085;SDS011;46967;48.876;2.136;2023-02-21T04:26:19;10.40;;;7.03;;
61085;SDS011;46967;48.876;2.136;2023-02-21T04:28:44;9.38;;;6.85;;
61085;SDS011;46967;48.876;2.136;2023-02-21T04:31:10;11.82;;;7.30;;
61085;SDS011;46967;48.876;2.136;2023-02-21T04:33:36;12.60;;;7.35;;
61085;SDS011;46967;48.876;2.136;2023-02-21T04:36:01;9.77;;;6.90;;
61085;SDS011;46967;48.876;2.136;2023-02-21T04:38:27;11.35;;;6.68;;
61085;SDS011;46967;48.876;2.136;2023-02-21T04:40:52;11.20;;;7.22;;
61085;SDS011;46967;48.876;2.136;2023-02-21T04:43:17;11.23;;;7.38;;
61085;SDS011;46967;48.876;2.136;2023-02-21T04:45:45;12.38;;;6.82;;
61085;SDS011;46967;48.876;2.136;2023-02-21T04:48:10;12.98;;;6.82;;
61085;SDS011;46967;48.876;2.136;2023-02-21T04:50:35;9.07;;;6.78;;
61085;SDS011;46967;48.876;2.136;2023-02-21T04:53:01;10.60;;;6.53;;
61085;SDS011;46967;48.876;2.136;2023-02-21T04:55:26;13.30;;;7.22;;
61085;SDS011;46967;48.876;2.136;2023-02-21T04:57:51;13.45;;;7.20;;
61085;SDS011;46967;48.876;2.136;2023-02-21T05:00:17;10.32;;;6.78;;
61085;SDS011;46967;48.876;2.136;2023-02-21T05:02:42;10.80;;;7.20;;
61085;SDS011;46967;48.876;2.136;2023-02-21T05:05:09;11.60;;;7.00;;
61085;SDS011;46967;48.876;2.136;2023-02-21T05:07:35;9.25;;;6.65;;
61085;SDS011;46967;48.876;2.136;2023-02-21T05:10:00;11.18;;;6.75;;
61085;SDS011;46967;48.876;2.136;2023-02-21T05:12:26;10.65;;;6.70;;
61085;SDS011;46967;48.876;2.136;2023-02-21T05:14:51;10.40;;;6.70;;
61085;SDS011;46967;48.876;2.136;2023-02-21T05:17:17;10.93;;;6.60;;
61085;SDS011;46967;48.876;2.136;2023-02-21T05:19:42;10.23;;;7.20;;
61085;SDS011;46967;48.876;2.136;2023-02-21T05:22:08;11.95;;;6.70;;
61085;SDS011;46967;48.876;2.136;2023-02-21T05:24:33;9.38;;;6.85;;
61085;SDS011;46967;48.876;2.136;2023-02-21T05:26:59;12.20;;;6.97;;
61085;SDS011;46967;48.876;2.136;2023-02-21T05:29:25;10.70;;;6.60;;
61085;SDS011;46967;48.876;2.136;2023-02-21T05:31:50;9.15;;;6.43;;
61085;SDS011;46967;48.876;2.136;2023-02-21T05:34:15;10.63;;;7.15;;
61085;SDS011;46967;48.876;2.136;2023-02-21T05:36:43;10.80;;;7.28;;
61085;SDS011;46967;48.876;2.136;2023-02-21T05:39:08;10.73;;;7.03;;
61085;SDS011;46967;48.876;2.136;2023-02-21T05:41:34;11.25;;;7.10;;
61085;SDS011;46967;48.876;2.136;2023-02-21T05:44:00;10.90;;;7.47;;
61085;SDS011;46967;48.876;2.136;2023-02-21T05:48:53;11.45;;;7.30;;
61085;SDS011;46967;48.876;2.136;2023-02-21T05:51:20;11.60;;;8.05;;
61085;SDS011;46967;48.876;2.136;2023-02-21T05:53:45;12.93;;;7.90;;
61085;SDS011;46967;48.876;2.136;2023-02-21T05:56:11;11.07;;;7.53;;
61085;SDS011;46967;48.876;2.136;2023-02-21T05:58:36;12.18;;;7.75;;
61085;SDS011;46967;48.876;2.136;2023-02-21T06:01:02;12.73;;;8.13;;
61085;SDS011;46967;48.876;2.136;2023-02-21T06:03:28;11.32;;;7.32;;
61085;SDS011;46967;48.876;2.136;2023-02-21T06:05:53;10.65;;;7.70;;
61085;SDS011;46967;48.876;2.136;2023-02-21T06:08:19;10.25;;;7.45;;
61085;SDS011;46967;48.876;2.136;2023-02-21T06:10:44;12.10;;;7.50;;
61085;SDS011;46967;48.876;2.136;2023-02-21T06:13:09;11.80;;;7.72;;
61085;SDS011;46967;48.876;2.136;2023-02-21T06:15:35;11.75;;;7.05;;
61085;SDS011;46967;48.876;2.136;2023-02-21T06:18:00;13.63;;;6.95;;
61085;SDS011;46967;48.876;2.136;2023-02-21T06:20:25;11.38;;;7.68;;
61085;SDS011;46967;48.876;2.136;2023-02-21T06:22:51;10.73;;;7.53;;
61085;SDS011;46967;48.876;2.136;2023-02-21T06:25:16;13.20;;;7.90;;
61085;SDS011;46967;48.876;2.136;2023-02-21T06:27:42;14.00;;;7.40;;
61085;SDS011;46967;48.876;2.136;2023-02-21T06:30:08;13.95;;;8.25;;
61085;SDS011;46967;48.876;2.136;2023-02-21T06:32:34;12.60;;;8.00;;
61085;SDS011;46967;48.876;2.136;2023-02-21T06:34:59;11.43;;;7.90;;
61085;SDS011;46967;48.876;2.136;2023-02-21T06:37:25;12.20;;;7.70;;
61085;SDS011;46967;48.876;2.136;2023-02-21T06:39:50;13.38;;;8.63;;
61085;SDS011;46967;48.876;2.136;2023-02-21T06:42:16;16.00;;;8.52;;
61085;SDS011;46967;48.876;2.136;2023-02-21T06:44:42;11.27;;;7.80;;
61085;SDS011;46967;48.876;2.136;2023-02-21T06:47:09;13.05;;;8.55;;
61085;SDS011;46967;48.876;2.136;2023-02-21T06:49:34;13.95;;;8.25;;
61085;SDS011;46967;48.876;2.136;2023-02-21T06:52:00;15.55;;;8.68;;
61085;SDS011;46967;48.876;2.136;2023-02-21T06:54:25;15.57;;;8.40;;
61085;SDS011;46967;48.876;2.136;2023-02-21T06:56:50;13.32;;;8.40;;
61085;SDS011;46967;48.876;2.136;2023-02-21T06:59:17;13.20;;;8.70;;
61085;SDS011;46967;48.876;2.136;2023-02-21T07:01:42;14.95;;;8.80;;
61085;SDS011;46967;48.876;2.136;2023-02-21T07:04:08;16.15;;;9.68;;
61085;SDS011;46967;48.876;2.136;2023-02-21T07:06:34;15.20;;;8.25;;
61085;SDS011;46967;48.876;2.136;2023-02-21T07:08:59;14.60;;;8.93;;
61085;SDS011;46967;48.876;2.136;2023-02-21T07:11:25;13.95;;;8.10;;
61085;SDS011;46967;48.876;2.136;2023-02-21T07:13:52;12.50;;;8.32;;
61085;SDS011;46967;48.876;2.136;2023-02-21T07:16:19;16.27;;;9.65;;
61085;SDS011;46967;48.876;2.136;2023-02-21T07:18:45;15.63;;;8.98;;
61085;SDS011;46967;48.876;2.136;2023-02-21T07:21:11;18.50;;;9.82;;
61085;SDS011;46967;48.876;2.136;2023-02-21T07:23:37;15.77;;;9.02;;
61085;SDS011;46967;48.876;2.136;2023-02-21T07:26:03;14.15;;;8.90;;
61085;SDS011;46967;48.876;2.136;2023-02-21T07:28:28;15.70;;;8.60;;
61085;SDS011;46967;48.876;2.136;2023-02-21T07:30:53;17.40;;;8.68;;
61085;SDS011;46967;48.876;2.136;2023-02-21T07:33:19;15.48;;;9.65;;
61085;SDS011;46967;48.876;2.136;2023-02-21T07:35:44;17.67;;;10.05;;
61085;SDS011;46967;48.876;2.136;2023-02-21T07:38:18;20.60;;;11.05;;
61085;SDS011;46967;48.876;2.136;2023-02-21T07:40:47;21.23;;;11.95;;
61085;SDS011;46967;48.876;2.136;2023-02-21T07:43:13;21.55;;;12.23;;
61085;SDS011;46967;48.876;2.136;2023-02-21T07:45:39;21.00;;;11.60;;
61085;SDS011;46967;48.876;2.136;2023-02-21T07:48:04;22.08;;;11.63;;
61085;SDS011;46967;48.876;2.136;2023-02-21T07:50:30;26.67;;;13.10;;
61085;SDS011;46967;48.876;2.136;2023-02-21T07:52:55;29.65;;;14.38;;
61085;SDS011;46967;48.876;2.136;2023-02-21T07:55:20;26.95;;;15.63;;
61085;SDS011;46967;48.876;2.136;2023-02-21T07:57:46;28.17;;;15.30;;
61085;SDS011;46967;48.876;2.136;2023-02-21T08:00:12;24.48;;;14.18;;
61085;SDS011;46967;48.876;2.136;2023-02-21T08:02:38;28.08;;;14.40;;
61085;SDS011;46967;48.876;2.136;2023-02-21T08:05:04;18.98;;;13.05;;
61085;SDS011;46967;48.876;2.136;2023-02-21T08:07:30;19.45;;;12.57;;
61085;SDS011;46967;48.876;2.136;2023-02-21T08:09:56;20.23;;;12.88;;
61085;SDS011;46967;48.876;2.136;2023-02-21T08:12:21;24.73;;;13.85;;
61085;SDS011;46967;48.876;2.136;2023-02-21T08:14:46;22.85;;;14.25;;
61085;SDS011;46967;48.876;2.136;2023-02-21T08:17:12;20.85;;;13.30;;
61085;SDS011;46967;48.876;2.136;2023-02-21T08:19:38;18.38;;;12.85;;
61085;SDS011;46967;48.876;2.136;2023-02-21T08:22:03;20.23;;;12.70;;
61085;SDS011;46967;48.876;2.136;2023-02-21T08:24:29;18.10;;;12.57;;
61085;SDS011;46967;48.876;2.136;2023-02-21T08:26:54;20.25;;;12.93;;
61085;SDS011;46967;48.876;2.136;2023-02-21T08:29:19;18.70;;;12.93;;
61085;SDS011;46967;48.876;2.136;2023-02-21T08:31:45;21.17;;;12.45;;
61085;SDS011;46967;48.876;2.136;2023-02-21T08:34:11;20.25;;;12.98;;
61085;SDS011;46967;48.876;2.136;2023-02-21T08:36:38;20.23;;;13.40;;
61085;SDS011;46967;48.876;2.136;2023-02-21T08:39:06;22.27;;;13.97;;
61085;SDS011;46967;48.876;2.136;2023-02-21T08:41:40;21.58;;;14.23;;
61085;SDS011;46967;48.876;2.136;2023-02-21T08:44:07;24.13;;;13.30;;
61085;SDS011;46967;48.876;2.136;2023-02-21T08:46:40;20.05;;;13.30;;
61085;SDS011;46967;48.876;2.136;2023-02-21T08:49:05;20.15;;;13.02;;
61085;SDS011;46967;48.876;2.136;2023-02-21T08:51:31;22.85;;;14.13;;
61085;SDS011;46967;48.876;2.136;2023-02-21T08:53:57;19.52;;;12.95;;
61085;SDS011;46967;48.876;2.136;2023-02-21T08:56:24;19.13;;;13.32;;
61085;SDS011;46967;48.876;2.136;2023-02-21T08:58:50;18.70;;;13.25;;
61085;SDS011;46967;48.876;2.136;2023-02-21T09:01:16;22.55;;;13.93;;
61085;SDS011;46967;48.876;2.136;2023-02-21T09:03:41;22.77;;;14.70;;
61085;SDS011;46967;48.876;2.136;2023-02-21T09:06:07;23.08;;;14.25;;
61085;SDS011;46967;48.876;2.136;2023-02-21T09:08:33;26.33;;;16.52;;
61085;SDS011;46967;48.876;2.136;2023-02-21T09:11:01;29.10;;;16.63;;
61085;SDS011;46967;48.876;2.136;2023-02-21T09:13:27;27.85;;;17.77;;
61085;SDS011;46967;48.876;2.136;2023-02-21T09:15:53;28.65;;;16.67;;
61085;SDS011;46967;48.876;2.136;2023-02-21T09:18:19;24.02;;;16.40;;
61085;SDS011;46967;48.876;2.136;2023-02-21T09:20:45;27.30;;;16.58;;
61085;SDS011;46967;48.876;2.136;2023-02-21T09:23:19;25.48;;;16.23;;
61085;SDS011;46967;48.876;2.136;2023-02-21T09:25:47;27.25;;;18.77;;
61085;SDS011;46967;48.876;2.136;2023-02-21T09:28:13;28.38;;;19.23;;
61085;SDS011;46967;48.876;2.136;2023-02-21T09:30:39;34.63;;;20.58;;
61085;SDS011;46967;48.876;2.136;2023-02-21T09:33:05;30.38;;;20.25;;
61085;SDS011;46967;48.876;2.136;2023-02-21T09:35:30;33.03;;;22.27;;
61085;SDS011;46967;48.876;2.136;2023-02-21T09:37:57;32.85;;;21.33;;
61085;SDS011;46967;48.876;2.136;2023-02-21T09:42:58;29.38;;;20.05;;
61085;SDS011;46967;48.876;2.136;2023-02-21T09:45:32;34.97;;;21.40;;
61085;SDS011;46967;48.876;2.136;2023-02-21T09:48:00;33.35;;;21.60;;
61085;SDS011;46967;48.876;2.136;2023-02-21T09:50:31;36.30;;;21.02;;
61085;SDS011;46967;48.876;2.136;2023-02-21T09:53:02;29.33;;;19.80;;
61085;SDS011;46967;48.876;2.136;2023-02-21T09:57:53;33.05;;;19.48;;
61085;SDS011;46967;48.876;2.136;2023-02-21T10:00:21;32.92;;;20.80;;
61085;SDS011;46967;48.876;2.136;2023-02-21T10:05:44;36.38;;;20.65;;
61085;SDS011;46967;48.876;2.136;2023-02-21T10:10:57;33.55;;;22.23;;
61085;SDS011;46967;48.876;2.136;2023-02-21T10:18:54;30.60;;;21.65;;
61085;SDS011;46967;48.876;2.136;2023-02-21T10:21:28;34.17;;;21.42;;
61085;SDS011;46967;48.876;2.136;2023-02-21T10:23:59;32.10;;;21.63;;
61085;SDS011;46967;48.876;2.136;2023-02-21T10:26:29;36.05;;;22.17;;
61085;SDS011;46967;48.876;2.136;2023-02-21T10:28:59;37.17;;;22.23;;
61085;SDS011;46967;48.876;2.136;2023-02-21T10:33:59;31.70;;;20.45;;
61085;SDS011;46967;48.876;2.136;2023-02-21T10:36:25;36.45;;;22.58;;
61085;SDS011;46967;48.876;2.136;2023-02-21T10:41:27;35.65;;;22.63;;
61085;SDS011;46967;48.876;2.136;2023-02-21T10:44:07;38.25;;;22.83;;
61085;SDS011;46967;48.876;2.136;2023-02-21T10:46:39;39.17;;;22.50;;
61085;SDS011;46967;48.876;2.136;2023-02-21T10:49:16;37.30;;;23.42;;
61085;SDS011;46967;48.876;2.136;2023-02-21T10:51:47;34.78;;;23.08;;
61085;SDS011;46967;48.876;2.136;2023-02-21T10:54:32;44.72;;;22.77;;
61085;SDS011;46967;48.876;2.136;2023-02-21T10:56:58;40.70;;;22.90;;
61085;SDS011;46967;48.876;2.136;2023-02-21T10:59:25;37.78;;;22.27;;
61085;SDS011;46967;48.876;2.136;2023-02-21T11:01:53;35.50;;;23.88;;
61085;SDS011;46967;48.876;2.136;2023-02-21T11:06:47;38.13;;;24.05;;
61085;SDS011;46967;48.876;2.136;2023-02-21T11:11:48;43.65;;;22.95;;
61085;SDS011;46967;48.876;2.136;2023-02-21T11:14:25;36.03;;;22.27;;
61085;SDS011;46967;48.876;2.136;2023-02-21T11:19:28;38.58;;;23.52;;
61085;SDS011;46967;48.876;2.136;2023-02-21T11:22:05;38.17;;;22.10;;
61085;SDS011;46967;48.876;2.136;2023-02-21T11:24:33;37.83;;;22.27;;
61085;SDS011;46967;48.876;2.136;2023-02-21T11:27:08;37.05;;;23.48;;
61085;SDS011;46967;48.876;2.136;2023-02-21T11:29:33;38.20;;;23.88;;
61085;SDS011;46967;48.876;2.136;2023-02-21T11:31:58;35.50;;;23.42;;
61085;SDS011;46967;48.876;2.136;2023-02-21T11:34:35;38.67;;;23.90;;
61085;SDS011;46967;48.876;2.136;2023-02-21T11:37:01;35.47;;;23.23;;
61085;SDS011;46967;48.876;2.136;2023-02-21T11:39:31;36.20;;;22.75;;
61085;SDS011;46967;48.876;2.136;2023-02-21T11:42:01;33.63;;;22.75;;
61085;SDS011;46967;48.876;2.136;2023-02-21T11:44:37;38.40;;;22.88;;
61085;SDS011;46967;48.876;2.136;2023-02-21T11:52:43;32.13;;;21.83;;
61085;SDS011;46967;48.876;2.136;2023-02-21T11:55:17;35.60;;;22.60;;
61085;SDS011;46967;48.876;2.136;2023-02-21T12:14:48;43.70;;;22.77;;
61085;SDS011;46967;48.876;2.136;2023-02-21T12:25:44;37.05;;;23.17;;
61085;SDS011;46967;48.876;2.136;2023-02-21T12:39:24;33.75;;;22.90;;
61085;SDS011;46967;48.876;2.136;2023-02-21T12:42:04;33.80;;;23.27;;
61085;SDS011;46967;48.876;2.136;2023-02-21T12:50:37;39.28;;;23.48;;
61085;SDS011;46967;48.876;2.136;2023-02-21T12:53:25;36.88;;;22.50;;
61085;SDS011;46967;48.876;2.136;2023-02-21T12:55:58;47.58;;;24.38;;
61085;SDS011;46967;48.876;2.136;2023-02-21T12:58:34;38.13;;;22.90;;
61085;SDS011;46967;48.876;2.136;2023-02-21T13:01:09;35.50;;;22.90;;
61085;SDS011;46967;48.876;2.136;2023-02-21T13:03:44;29.53;;;22.00;;
61085;SDS011;46967;48.876;2.136;2023-02-21T13:09:32;35.85;;;20.95;;
61085;SDS011;46967;48.876;2.136;2023-02-21T13:12:13;37.42;;;21.63;;
61085;SDS011;46967;48.876;2.136;2023-02-21T13:14:52;33.97;;;21.23;;
61085;SDS011;46967;48.876;2.136;2023-02-21T13:17:21;38.28;;;21.33;;
61085;SDS011;46967;48.876;2.136;2023-02-21T13:19:49;33.72;;;21.20;;
61085;SDS011;46967;48.876;2.136;2023-02-21T13:25:24;46.63;;;21.25;;
61085;SDS011;46967;48.876;2.136;2023-02-21T13:30:44;37.42;;;21.98;;
61085;SDS011;46967;48.876;2.136;2023-02-21T13:33:22;40.00;;;21.00;;
61085;SDS011;46967;48.876;2.136;2023-02-21T13:35:55;38.42;;;19.40;;
61085;SDS011;46967;48.876;2.136;2023-02-21T13:38:22;33.35;;;20.58;;
61085;SDS011;46967;48.876;2.136;2023-02-21T13:40:52;38.05;;;20.77;;
61085;SDS011;46967;48.876;2.136;2023-02-21T13:43:27;36.38;;;21.15;;
61085;SDS011;46967;48.876;2.136;2023-02-21T13:46:02;28.48;;;17.60;;
61085;SDS011;46967;48.876;2.136;2023-02-21T13:52:14;35.03;;;18.17;;
61085;SDS011;46967;48.876;2.136;2023-02-21T14:10:48;33.28;;;17.75;;
61085;SDS011;46967;48.876;2.136;2023-02-21T14:13:38;29.77;;;17.65;;
61085;SDS011;46967;48.876;2.136;2023-02-21T14:24:20;36.15;;;18.20;;
61085;SDS011;46967;48.876;2.136;2023-02-21T15:05:09;32.05;;;15.73;;
61085;SDS011;46967;48.876;2.136;2023-02-21T15:12:49;26.30;;;14.18;;
61085;SDS011;46967;48.876;2.136;2023-02-21T15:15:28;25.73;;;13.70;;
61085;SDS011;46967;48.876;2.136;2023-02-21T15:21:00;26.67;;;14.05;;
61085;SDS011;46967;48.876;2.136;2023-02-21T15:23:45;29.48;;;13.77;;
61085;SDS011;46967;48.876;2.136;2023-02-21T15:26:28;22.85;;;13.77;;
61085;SDS011;46967;48.876;2.136;2023-02-21T15:29:02;26.27;;;13.90;;
61085;SDS011;46967;48.876;2.136;2023-02-21T15:34:04;26.60;;;13.85;;
61085;SDS011;46967;48.876;2.136;2023-02-21T15:36:29;28.80;;;13.32;;
61085;SDS011;46967;48.876;2.136;2023-02-21T15:39:07;20.88;;;13.00;;
61085;SDS011;46967;48.876;2.136;2023-02-21T15:44:22;28.60;;;13.05;;
61085;SDS011;46967;48.876;2.136;2023-02-21T15:46:58;30.42;;;13.90;;
61085;SDS011;46967;48.876;2.136;2023-02-21T15:49:36;23.95;;;13.70;;
61085;SDS011;46967;48.876;2.136;2023-02-21T15:52:04;21.20;;;12.68;;
61085;SDS011;46967;48.876;2.136;2023-02-21T15:54:34;25.90;;;13.00;;
61085;SDS011;46967;48.876;2.136;2023-02-21T15:57:17;22.92;;;12.27;;
61085;SDS011;46967;48.876;2.136;2023-02-21T15:59:48;20.02;;;11.98;;
61085;SDS011;46967;48.876;2.136;2023-02-21T16:02:34;21.42;;;11.35;;
61085;SDS011;46967;48.876;2.136;2023-02-21T16:04:59;22.80;;;11.70;;
61085;SDS011;46967;48.876;2.136;2023-02-21T16:07:28;20.02;;;10.52;;
61085;SDS011;46967;48.876;2.136;2023-02-21T16:10:05;22.08;;;10.95;;
61085;SDS011;46967;48.876;2.136;2023-02-21T16:12:37;18.92;;;9.48;;
61085;SDS011;46967;48.876;2.136;2023-02-21T16:15:18;16.65;;;10.15;;
61085;SDS011;46967;48.876;2.136;2023-02-21T16:17:55;18.33;;;9.77;;
61085;SDS011;46967;48.876;2.136;2023-02-21T16:20:28;18.10;;;9.48;;
61085;SDS011;46967;48.876;2.136;2023-02-21T16:28:31;19.30;;;9.68;;
61085;SDS011;46967;48.876;2.136;2023-02-21T16:30:57;18.73;;;9.25;;
61085;SDS011;46967;48.876;2.136;2023-02-21T16:33:25;29.52;;;9.40;;
61085;SDS011;46967;48.876;2.136;2023-02-21T16:35:52;20.27;;;9.35;;
61085;SDS011;46967;48.876;2.136;2023-02-21T16:38:18;16.63;;;9.13;;
61085;SDS011;46967;48.876;2.136;2023-02-21T16:40:45;17.83;;;8.73;;
61085;SDS011;46967;48.876;2.136;2023-02-21T16:43:18;24.13;;;9.30;;
61085;SDS011;46967;48.876;2.136;2023-02-21T16:45:49;19.70;;;8.80;;
61085;SDS011;46967;48.876;2.136;2023-02-21T16:48:17;19.67;;;9.48;;
61085;SDS011;46967;48.876;2.136;2023-02-21T16:50:50;20.70;;;9.15;;
61085;SDS011;46967;48.876;2.136;2023-02-21T16:53:15;21.80;;;11.15;;
61085;SDS011;46967;48.876;2.136;2023-02-21T16:55:42;20.27;;;10.35;;
61085;SDS011;46967;48.876;2.136;2023-02-21T17:00:44;17.50;;;9.32;;
61085;SDS011;46967;48.876;2.136;2023-02-21T17:03:10;16.02;;;9.25;;
61085;SDS011;46967;48.876;2.136;2023-02-21T17:05:35;23.25;;;10.25;;
61085;SDS011;46967;48.876;2.136;2023-02-21T17:08:00;20.15;;;9.90;;
61085;SDS011;46967;48.876;2.136;2023-02-21T17:10:27;18.08;;;9.75;;
61085;SDS011;46967;48.876;2.136;2023-02-21T17:12:52;22.77;;;10.13;;
61085;SDS011;46967;48.876;2.136;2023-02-21T17:15:17;17.60;;;10.45;;
61085;SDS011;46967;48.876;2.136;2023-02-21T17:17:45;20.67;;;9.73;;
61085;SDS011;46967;48.876;2.136;2023-02-21T17:20:13;18.58;;;9.82;;
61085;SDS011;46967;48.876;2.136;2023-02-21T17:22:41;19.45;;;9.43;;
61085;SDS011;46967;48.876;2.136;2023-02-21T17:25:06;15.35;;;9.40;;
61085;SDS011;46967;48.876;2.136;2023-02-21T17:27:32;18.55;;;10.18;;
61085;SDS011;46967;48.876;2.136;2023-02-21T17:29:57;19.90;;;10.02;;
61085;SDS011;46967;48.876;2.136;2023-02-21T17:32:22;18.65;;;9.88;;
61085;SDS011;46967;48.876;2.136;2023-02-21T17:34:48;17.38;;;10.30;;
61085;SDS011;46967;48.876;2.136;2023-02-21T17:37:13;24.88;;;10.60;;
61085;SDS011;46967;48.876;2.136;2023-02-21T17:39:38;19.23;;;10.73;;
61085;SDS011;46967;48.876;2.136;2023-02-21T17:42:04;20.75;;;9.50;;
61085;SDS011;46967;48.876;2.136;2023-02-21T17:44:30;21.48;;;10.07;;
61085;SDS011;46967;48.876;2.136;2023-02-21T17:46:57;23.25;;;10.35;;
61085;SDS011;46967;48.876;2.136;2023-02-21T17:49:23;23.83;;;10.90;;
61085;SDS011;46967;48.876;2.136;2023-02-21T17:51:50;18.13;;;9.88;;
61085;SDS011;46967;48.876;2.136;2023-02-21T17:54:17;19.58;;;10.45;;
61085;SDS011;46967;48.876;2.136;2023-02-21T17:56:44;19.13;;;11.10;;
61085;SDS011;46967;48.876;2.136;2023-02-21T17:59:09;21.63;;;11.55;;
61085;SDS011;46967;48.876;2.136;2023-02-21T18:01:35;21.42;;;10.90;;
61085;SDS011;46967;48.876;2.136;2023-02-21T18:04:01;19.05;;;10.60;;
61085;SDS011;46967;48.876;2.136;2023-02-21T18:06:27;19.80;;;10.82;;
61085;SDS011;46967;48.876;2.136;2023-02-21T18:08:54;19.42;;;10.07;;
61085;SDS011;46967;48.876;2.136;2023-02-21T18:11:20;18.20;;;10.45;;
61085;SDS011;46967;48.876;2.136;2023-02-21T18:13:47;18.88;;;10.80;;
61085;SDS011;46967;48.876;2.136;2023-02-21T18:16:13;25.60;;;11.40;;
61085;SDS011;46967;48.876;2.136;2023-02-21T18:18:38;20.55;;;11.85;;
61085;SDS011;46967;48.876;2.136;2023-02-21T18:21:04;19.95;;;11.57;;
61085;SDS011;46967;48.876;2.136;2023-02-21T18:23:31;27.00;;;13.13;;
61085;SDS011;46967;48.876;2.136;2023-02-21T18:25:57;17.92;;;11.40;;